Terminal Aerodrome Forecast
Issued by NWS

Home | Current Version | Previous Version | Text Only | Print | Product List | Glossary On
Versions: 1 2 3 4 5 6 7 8 9 10 11 12 13 14 15 16 17 18 19 20 21 22 23 24
475
FTUS41 KOKX 021933 AAA
TAFSWF
TAF AMD
KSWF 021933Z 0220/0324 VRB05KT 3SM BR OVC009
      TEMPO 0220/0222 6SM BR SCT005 OVC012
     FM031100 VRB03KT 2SM RA BR OVC005
     FM031700 05005KT 3SM BR BKN008 OVC040
      AMD NOT SKED=

USA.gov is the U.S. government's official web portal to all federal, state and local government web resources and services.